sensor_id;sensor_type;location;lat;lon;timestamp;temperature;humidity
24744;DHT22;12844;52.110;5.548;2023-04-01T00:01:30;20.10;53.70
24744;DHT22;12844;52.110;5.548;2023-04-01T00:03:56;20.10;53.70
24744;DHT22;12844;52.110;5.548;2023-04-01T00:06:22;20.00;53.70
24744;DHT22;12844;52.110;5.548;2023-04-01T00:08:48;20.00;53.70
24744;DHT22;12844;52.110;5.548;2023-04-01T00:11:14;20.00;53.60
24744;DHT22;12844;52.110;5.548;2023-04-01T00:13:40;20.00;53.60
24744;DHT22;12844;52.110;5.548;2023-04-01T00:16:07;20.00;53.60
24744;DHT22;12844;52.110;5.548;2023-04-01T00:18:33;20.00;53.70
24744;DHT22;12844;52.110;5.548;2023-04-01T00:20:58;20.00;53.70
24744;DHT22;12844;52.110;5.548;2023-04-01T00:23:25;20.00;53.70
24744;DHT22;12844;52.110;5.548;2023-04-01T00:25:51;20.00;53.70
24744;DHT22;12844;52.110;5.548;2023-04-01T00:28:18;20.00;53.70
24744;DHT22;12844;52.110;5.548;2023-04-01T00:30:44;20.00;53.70
24744;DHT22;12844;52.110;5.548;2023-04-01T00:33:10;20.00;53.70
24744;DHT22;12844;52.110;5.548;2023-04-01T00:35:36;20.00;53.70
24744;DHT22;12844;52.110;5.548;2023-04-01T00:38:02;20.00;53.70
24744;DHT22;12844;52.110;5.548;2023-04-01T00:40:37;20.00;53.80
24744;DHT22;12844;52.110;5.548;2023-04-01T00:43:09;20.00;53.80
24744;DHT22;12844;52.110;5.548;2023-04-01T00:45:39;19.90;53.80
24744;DHT22;12844;52.110;5.548;2023-04-01T00:48:20;19.90;53.90
24744;DHT22;12844;52.110;5.548;2023-04-01T00:53:32;19.90;53.80
24744;DHT22;12844;52.110;5.548;2023-04-01T00:56:12;19.90;53.80
24744;DHT22;12844;52.110;5.548;2023-04-01T00:58:41;19.90;53.80
24744;DHT22;12844;52.110;5.548;2023-04-01T01:01:09;19.90;53.80
24744;DHT22;12844;52.110;5.548;2023-04-01T01:03:35;19.90;53.80
24744;DHT22;12844;52.110;5.548;2023-04-01T01:11:48;19.90;53.80
24744;DHT22;12844;52.110;5.548;2023-04-01T01:17:11;19.90;53.80
24744;DHT22;12844;52.110;5.548;2023-04-01T01:31:21;19.80;53.80
24744;DHT22;12844;52.110;5.548;2023-04-01T01:34:07;19.80;53.80
24744;DHT22;12844;52.110;5.548;2023-04-01T01:36:38;19.90;53.80
24744;DHT22;12844;52.110;5.548;2023-04-01T01:39:06;19.90;53.80
24744;DHT22;12844;52.110;5.548;2023-04-01T01:41:32;19.80;53.80
24744;DHT22;12844;52.110;5.548;2023-04-01T01:44:02;19.80;53.80
24744;DHT22;12844;52.110;5.548;2023-04-01T01:46:31;19.80;53.70
24744;DHT22;12844;52.110;5.548;2023-04-01T01:48:57;19.80;53.70
24744;DHT22;12844;52.110;5.548;2023-04-01T01:51:26;19.90;53.70
24744;DHT22;12844;52.110;5.548;2023-04-01T01:53:52;19.80;53.60
24744;DHT22;12844;52.110;5.548;2023-04-01T01:56:20;19.90;53.60
24744;DHT22;12844;52.110;5.548;2023-04-01T01:58:49;19.80;53.60
24744;DHT22;12844;52.110;5.548;2023-04-01T02:01:26;19.80;53.60
24744;DHT22;12844;52.110;5.548;2023-04-01T02:03:53;19.80;53.50
24744;DHT22;12844;52.110;5.548;2023-04-01T02:06:22;19.80;53.50
24744;DHT22;12844;52.110;5.548;2023-04-01T04:19:00;19.60;53.40
24744;DHT22;12844;52.110;5.548;2023-04-01T04:21:26;19.60;53.40
24744;DHT22;12844;52.110;5.548;2023-04-01T04:23:51;19.60;53.40
24744;DHT22;12844;52.110;5.548;2023-04-01T04:26:17;19.60;53.40
24744;DHT22;12844;52.110;5.548;2023-04-01T04:28:42;19.60;53.40
24744;DHT22;12844;52.110;5.548;2023-04-01T04:33:41;19.60;53.30
24744;DHT22;12844;52.110;5.548;2023-04-01T04:36:07;19.60;53.40
24744;DHT22;12844;52.110;5.548;2023-04-01T04:38:33;19.60;53.30
24744;DHT22;12844;52.110;5.548;2023-04-01T04:40:58;19.60;53.30
24744;DHT22;12844;52.110;5.548;2023-04-01T04:43:24;19.60;53.30
24744;DHT22;12844;52.110;5.548;2023-04-01T04:45:49;19.60;53.30
24744;DHT22;12844;52.110;5.548;2023-04-01T04:48:16;19.60;53.40
24744;DHT22;12844;52.110;5.548;2023-04-01T04:50:45;19.60;53.30
24744;DHT22;12844;52.110;5.548;2023-04-01T04:53:13;19.60;53.30
24744;DHT22;12844;52.110;5.548;2023-04-01T04:55:44;19.60;53.30
24744;DHT22;12844;52.110;5.548;2023-04-01T04:58:10;19.60;53.30
24744;DHT22;12844;52.110;5.548;2023-04-01T05:00:36;19.60;53.30
24744;DHT22;12844;52.110;5.548;2023-04-01T05:03:01;19.60;53.30
24744;DHT22;12844;52.110;5.548;2023-04-01T05:05:27;19.60;53.30
24744;DHT22;12844;52.110;5.548;2023-04-01T05:07:52;19.60;53.40
24744;DHT22;12844;52.110;5.548;2023-04-01T05:10:18;19.60;53.40
24744;DHT22;12844;52.110;5.548;2023-04-01T05:12:43;19.60;53.40
24744;DHT22;12844;52.110;5.548;2023-04-01T05:15:09;19.60;53.40
24744;DHT22;12844;52.110;5.548;2023-04-01T05:17:35;19.60;53.40
24744;DHT22;12844;52.110;5.548;2023-04-01T05:20:01;19.60;53.50
24744;DHT22;12844;52.110;5.548;2023-04-01T05:22:26;19.60;53.50
24744;DHT22;12844;52.110;5.548;2023-04-01T05:24:52;19.60;53.40
24744;DHT22;12844;52.110;5.548;2023-04-01T05:27:18;19.60;53.40
24744;DHT22;12844;52.110;5.548;2023-04-01T05:29:43;19.60;53.40
24744;DHT22;12844;52.110;5.548;2023-04-01T05:32:09;19.50;53.40
24744;DHT22;12844;52.110;5.548;2023-04-01T05:34:34;19.50;53.40
24744;DHT22;12844;52.110;5.548;2023-04-01T05:37:00;19.50;53.30
24744;DHT22;12844;52.110;5.548;2023-04-01T05:39:25;19.50;53.30
24744;DHT22;12844;52.110;5.548;2023-04-01T05:41:51;19.50;53.30
24744;DHT22;12844;52.110;5.548;2023-04-01T05:44:17;19.50;53.30
24744;DHT22;12844;52.110;5.548;2023-04-01T05:46:42;19.50;53.30
24744;DHT22;12844;52.110;5.548;2023-04-01T05:49:08;19.50;53.30
24744;DHT22;12844;52.110;5.548;2023-04-01T05:51:33;19.50;53.30
24744;DHT22;12844;52.110;5.548;2023-04-01T05:53:59;19.50;53.30
24744;DHT22;12844;52.110;5.548;2023-04-01T05:56:24;19.50;53.30
24744;DHT22;12844;52.110;5.548;2023-04-01T05:58:52;19.50;53.30
24744;DHT22;12844;52.110;5.548;2023-04-01T06:01:18;19.50;53.30
24744;DHT22;12844;52.110;5.548;2023-04-01T06:03:44;19.50;53.30
24744;DHT22;12844;52.110;5.548;2023-04-01T06:06:23;19.50;53.30
24744;DHT22;12844;52.110;5.548;2023-04-01T06:08:49;19.50;53.30
24744;DHT22;12844;52.110;5.548;2023-04-01T06:11:55;19.50;53.30
24744;DHT22;12844;52.110;5.548;2023-04-01T06:25:46;19.40;53.40
24744;DHT22;12844;52.110;5.548;2023-04-01T06:34:17;19.40;53.40
24744;DHT22;12844;52.110;5.548;2023-04-01T06:39:58;19.30;53.40
24744;DHT22;12844;52.110;5.548;2023-04-01T06:42:40;19.40;53.40
24744;DHT22;12844;52.110;5.548;2023-04-01T06:53:46;19.30;53.50
24744;DHT22;12844;52.110;5.548;2023-04-01T06:55:46;19.30;53.70
24744;DHT22;12844;52.110;5.548;2023-04-01T06:58:21;19.40;53.80
24744;DHT22;12844;52.110;5.548;2023-04-01T07:00:54;19.60;54.00
24744;DHT22;12844;52.110;5.548;2023-04-01T07:05:47;19.80;54.10
24744;DHT22;12844;52.110;5.548;2023-04-01T07:08:23;20.00;54.20
24744;DHT22;12844;52.110;5.548;2023-04-01T07:10:58;20.20;54.00
24744;DHT22;12844;52.110;5.548;2023-04-01T07:13:41;20.40;53.80
24744;DHT22;12844;52.110;5.548;2023-04-01T07:16:33;20.50;53.80
24744;DHT22;12844;52.110;5.548;2023-04-01T07:19:04;20.60;53.70
24744;DHT22;12844;52.110;5.548;2023-04-01T07:21:43;20.70;53.70
24744;DHT22;12844;52.110;5.548;2023-04-01T07:24:16;20.80;53.60
24744;DHT22;12844;52.110;5.548;2023-04-01T07:26:46;20.90;53.70
24744;DHT22;12844;52.110;5.548;2023-04-01T07:29:13;21.00;53.50
24744;DHT22;12844;52.110;5.548;2023-04-01T07:37:41;21.20;53.10
24744;DHT22;12844;52.110;5.548;2023-04-01T07:40:43;21.20;53.10
24744;DHT22;12844;52.110;5.548;2023-04-01T07:48:50;21.20;52.90
24744;DHT22;12844;52.110;5.548;2023-04-01T07:51:47;21.20;52.80
24744;DHT22;12844;52.110;5.548;2023-04-01T07:57:14;21.20;52.80
24744;DHT22;12844;52.110;5.548;2023-04-01T07:59:48;21.20;52.80
24744;DHT22;12844;52.110;5.548;2023-04-01T08:05:10;21.20;52.90
24744;DHT22;12844;52.110;5.548;2023-04-01T08:07:47;21.20;52.80
24744;DHT22;12844;52.110;5.548;2023-04-01T08:10:23;21.20;52.70
24744;DHT22;12844;52.110;5.548;2023-04-01T08:13:07;21.10;52.90
24744;DHT22;12844;52.110;5.548;2023-04-01T08:16:01;21.10;53.10
24744;DHT22;12844;52.110;5.548;2023-04-01T08:21:17;21.10;53.10
24744;DHT22;12844;52.110;5.548;2023-04-01T08:23:48;21.10;53.20
24744;DHT22;12844;52.110;5.548;2023-04-01T08:26:36;21.00;53.20
24744;DHT22;12844;52.110;5.548;2023-04-01T08:29:11;21.00;53.20
24744;DHT22;12844;52.110;5.548;2023-04-01T08:34:39;21.00;53.10
24744;DHT22;12844;52.110;5.548;2023-04-01T08:37:19;21.00;53.20
24744;DHT22;12844;52.110;5.548;2023-04-01T08:39:53;21.00;53.20
24744;DHT22;12844;52.110;5.548;2023-04-01T08:45:25;20.90;53.40
24744;DHT22;12844;52.110;5.548;2023-04-01T08:56:20;20.90;53.70
24744;DHT22;12844;52.110;5.548;2023-04-01T09:15:33;20.80;54.30
24744;DHT22;12844;52.110;5.548;2023-04-01T09:18:24;20.80;54.00
24744;DHT22;12844;52.110;5.548;2023-04-01T09:23:47;20.80;54.20
24744;DHT22;12844;52.110;5.548;2023-04-01T09:34:53;20.80;54.40
24744;DHT22;12844;52.110;5.548;2023-04-01T09:37:36;20.80;54.50
24744;DHT22;12844;52.110;5.548;2023-04-01T09:40:34;20.80;54.50
24744;DHT22;12844;52.110;5.548;2023-04-01T09:43:21;20.90;54.60
24744;DHT22;12844;52.110;5.548;2023-04-01T09:59:48;21.00;54.40
24744;DHT22;12844;52.110;5.548;2023-04-01T10:02:34;21.00;54.30
24744;DHT22;12844;52.110;5.548;2023-04-01T10:28:07;21.00;54.30
24744;DHT22;12844;52.110;5.548;2023-04-01T10:36:31;21.00;54.40
24744;DHT22;12844;52.110;5.548;2023-04-01T10:39:27;21.00;54.40
24744;DHT22;12844;52.110;5.548;2023-04-01T11:58:06;20.90;54.40
24744;DHT22;12844;52.110;5.548;2023-04-01T12:00:20;20.90;54.50
24744;DHT22;12844;52.110;5.548;2023-04-01T12:05:52;20.90;54.60
24744;DHT22;12844;52.110;5.548;2023-04-01T12:11:14;20.80;54.70
24744;DHT22;12844;52.110;5.548;2023-04-01T12:14:09;20.90;54.80
24744;DHT22;12844;52.110;5.548;2023-04-01T12:16:44;20.90;54.70
24744;DHT22;12844;52.110;5.548;2023-04-01T12:19:39;20.90;54.80
24744;DHT22;12844;52.110;5.548;2023-04-01T12:25:02;20.90;54.70
24744;DHT22;12844;52.110;5.548;2023-04-01T12:33:42;21.20;54.50
24744;DHT22;12844;52.110;5.548;2023-04-01T12:39:27;21.40;54.10
24744;DHT22;12844;52.110;5.548;2023-04-01T12:42:24;21.50;53.70
24744;DHT22;12844;52.110;5.548;2023-04-01T13:07:57;21.20;53.90
24744;DHT22;12844;52.110;5.548;2023-04-01T13:16:08;21.20;54.10
24744;DHT22;12844;52.110;5.548;2023-04-01T13:19:07;21.10;54.20
24744;DHT22;12844;52.110;5.548;2023-04-01T13:21:54;21.10;54.30
24744;DHT22;12844;52.110;5.548;2023-04-01T13:24:38;21.10;54.30
24744;DHT22;12844;52.110;5.548;2023-04-01T13:27:24;21.10;54.40
24744;DHT22;12844;52.110;5.548;2023-04-01T13:30:26;21.10;54.40
24744;DHT22;12844;52.110;5.548;2023-04-01T13:41:49;20.90;54.60
24744;DHT22;12844;52.110;5.548;2023-04-01T13:44:38;20.90;54.60
24744;DHT22;12844;52.110;5.548;2023-04-01T13:50:31;20.90;54.70
24744;DHT22;12844;52.110;5.548;2023-04-01T14:03:56;20.80;54.80
24744;DHT22;12844;52.110;5.548;2023-04-01T14:12:30;20.80;54.90
24744;DHT22;12844;52.110;5.548;2023-04-01T14:29:42;20.70;54.90
24744;DHT22;12844;52.110;5.548;2023-04-01T14:35:19;20.80;55.10
24744;DHT22;12844;52.110;5.548;2023-04-01T14:41:13;20.70;55.10
24744;DHT22;12844;52.110;5.548;2023-04-01T14:46:41;20.70;55.20
24744;DHT22;12844;52.110;5.548;2023-04-01T14:52:06;20.70;55.20
24744;DHT22;12844;52.110;5.548;2023-04-01T14:54:41;20.70;55.20
24744;DHT22;12844;52.110;5.548;2023-04-01T14:57:12;20.70;55.30
24744;DHT22;12844;52.110;5.548;2023-04-01T15:02:56;20.70;55.20
24744;DHT22;12844;52.110;5.548;2023-04-01T15:05:39;20.80;55.20
24744;DHT22;12844;52.110;5.548;2023-04-01T15:08:33;20.70;55.20
24744;DHT22;12844;52.110;5.548;2023-04-01T15:11:21;20.80;55.20
24744;DHT22;12844;52.110;5.548;2023-04-01T15:20:02;20.80;55.20
24744;DHT22;12844;52.110;5.548;2023-04-01T15:25:27;20.80;55.10
24744;DHT22;12844;52.110;5.548;2023-04-01T15:28:27;20.80;55.00
24744;DHT22;12844;52.110;5.548;2023-04-01T15:31:19;20.90;55.00
24744;DHT22;12844;52.110;5.548;2023-04-01T15:34:09;20.90;55.00
24744;DHT22;12844;52.110;5.548;2023-04-01T15:36:56;20.90;55.00
24744;DHT22;12844;52.110;5.548;2023-04-01T15:42:28;20.90;54.90
24744;DHT22;12844;52.110;5.548;2023-04-01T15:45:09;20.90;54.90
24744;DHT22;12844;52.110;5.548;2023-04-01T15:53:30;20.90;54.90
24744;DHT22;12844;52.110;5.548;2023-04-01T16:01:33;20.90;55.00
24744;DHT22;12844;52.110;5.548;2023-04-01T16:04:11;20.90;55.00
24744;DHT22;12844;52.110;5.548;2023-04-01T16:21:40;20.80;55.20
24744;DHT22;12844;52.110;5.548;2023-04-01T16:24:30;20.80;55.20
24744;DHT22;12844;52.110;5.548;2023-04-01T16:27:25;20.80;55.20
24744;DHT22;12844;52.110;5.548;2023-04-01T16:29:56;20.80;55.20
24744;DHT22;12844;52.110;5.548;2023-04-01T16:32:57;20.80;55.30
24744;DHT22;12844;52.110;5.548;2023-04-01T16:35:57;20.80;55.20
24744;DHT22;12844;52.110;5.548;2023-04-01T16:41:15;20.80;55.40
24744;DHT22;12844;52.110;5.548;2023-04-01T16:43:44;20.80;55.30
24744;DHT22;12844;52.110;5.548;2023-04-01T16:46:34;20.70;55.30
24744;DHT22;12844;52.110;5.548;2023-04-01T16:49:24;20.80;55.30
24744;DHT22;12844;52.110;5.548;2023-04-01T16:52:14;20.70;55.30
24744;DHT22;12844;52.110;5.548;2023-04-01T16:54:57;20.70;55.30
24744;DHT22;12844;52.110;5.548;2023-04-01T16:59:56;20.70;55.40
24744;DHT22;12844;52.110;5.548;2023-04-01T17:03:13;20.70;55.40
24744;DHT22;12844;52.110;5.548;2023-04-01T17:05:20;20.70;55.50
24744;DHT22;12844;52.110;5.548;2023-04-01T17:10:53;20.70;55.40
24744;DHT22;12844;52.110;5.548;2023-04-01T17:21:57;20.70;55.40
24744;DHT22;12844;52.110;5.548;2023-04-01T17:42:40;20.60;55.20
24744;DHT22;12844;52.110;5.548;2023-04-01T17:45:28;20.60;55.10
24744;DHT22;12844;52.110;5.548;2023-04-01T17:48:08;20.60;55.00
24744;DHT22;12844;52.110;5.548;2023-04-01T17:51:01;20.60;55.00
24744;DHT22;12844;52.110;5.548;2023-04-01T17:53:59;20.60;55.00
24744;DHT22;12844;52.110;5.548;2023-04-01T17:56:58;20.50;54.80
24744;DHT22;12844;52.110;5.548;2023-04-01T17:59:43;20.60;54.80
24744;DHT22;12844;52.110;5.548;2023-04-01T18:08:11;20.50;54.90
24744;DHT22;12844;52.110;5.548;2023-04-01T18:13:19;20.50;55.10
24744;DHT22;12844;52.110;5.548;2023-04-01T18:16:15;20.60;55.10
24744;DHT22;12844;52.110;5.548;2023-04-01T22:30:17;20.20;55.00
24744;DHT22;12844;52.110;5.548;2023-04-01T22:32:47;20.20;54.90
24744;DHT22;12844;52.110;5.548;2023-04-01T22:40:52;20.10;55.10
24744;DHT22;12844;52.110;5.548;2023-04-01T22:48:42;20.10;55.10
24744;DHT22;12844;52.110;5.548;2023-04-01T22:51:22;20.10;55.20
24744;DHT22;12844;52.110;5.548;2023-04-01T22:56:47;20.00;55.10
24744;DHT22;12844;52.110;5.548;2023-04-01T23:02:00;20.00;55.10
24744;DHT22;12844;52.110;5.548;2023-04-01T23:04:31;20.00;55.10
24744;DHT22;12844;52.110;5.548;2023-04-01T23:07:03;20.00;55.10
24744;DHT22;12844;52.110;5.548;2023-04-01T23:09:34;20.00;55.10
24744;DHT22;12844;52.110;5.548;2023-04-01T23:12:13;20.00;55.10
24744;DHT22;12844;52.110;5.548;2023-04-01T23:14:47;20.00;55.00
24744;DHT22;12844;52.110;5.548;2023-04-01T23:17:31;20.00;55.00
24744;DHT22;12844;52.110;5.548;2023-04-01T23:28:53;20.00;55.00
24744;DHT22;12844;52.110;5.548;2023-04-01T23:31:36;20.00;55.00
24744;DHT22;12844;52.110;5.548;2023-04-01T23:39:11;20.00;55.00
24744;DHT22;12844;52.110;5.548;2023-04-01T23:41:40;20.00;54.90
24744;DHT22;12844;52.110;5.548;2023-04-01T23:44:11;20.00;54.80
24744;DHT22;12844;52.110;5.548;2023-04-01T23:46:39;20.00;54.80
24744;DHT22;12844;52.110;5.548;2023-04-01T23:49:10;20.00;54.80
24744;DHT22;12844;52.110;5.548;2023-04-01T23:51:46;19.90;54.90
24744;DHT22;12844;52.110;5.548;2023-04-01T23:54:19;20.00;54.80
24744;DHT22;12844;52.110;5.548;2023-04-01T23:56:51;20.00;54.80
24744;DHT22;12844;52.110;5.548;2023-04-01T23:59:22;19.90;54.80
